sensor_id;sensor_type;location;lat;lon;timestamp;pressure;altitude;pressure_sealevel;temperature;humidity
7586;BME280;12459;42.646;23.292;2023-06-24T00:08:39;93594.06;;;22.11;100.00
7586;BME280;12459;42.646;23.292;2023-06-24T00:23:41;93566.00;;;22.11;100.00
7586;BME280;12459;42.646;23.292;2023-06-24T00:38:44;93776.34;;;23.27;100.00
7586;BME280;12459;42.646;23.292;2023-06-24T00:53:47;93534.22;;;21.73;100.00
7586;BME280;12459;42.646;23.292;2023-06-24T01:08:49;93520.69;;;21.63;100.00
7586;BME280;12459;42.646;23.292;2023-06-24T01:24:12;93711.16;;;23.00;100.00
7586;BME280;12459;42.646;23.292;2023-06-24T01:39:21;93549.31;;;21.53;100.00
7586;BME280;12459;42.646;23.292;2023-06-24T01:54:26;93760.88;;;22.48;100.00
7586;BME280;12459;42.646;23.292;2023-06-24T02:09:31;93629.13;;;21.68;100.00
7586;BME280;12459;42.646;23.292;2023-06-24T02:24:34;93631.59;;;21.66;100.00
7586;BME280;12459;42.646;23.292;2023-06-24T02:39:36;93675.41;;;21.78;100.00
7586;BME280;12459;42.646;23.292;2023-06-24T02:54:41;93697.78;;;21.96;100.00
7586;BME280;12459;42.646;23.292;2023-06-24T03:09:43;93556.59;;;20.97;100.00
7586;BME280;12459;42.646;23.292;2023-06-24T03:24:44;93681.66;;;20.71;100.00
7586;BME280;12459;42.646;23.292;2023-06-24T03:39:46;93740.34;;;22.03;100.00
7586;BME280;12459;42.646;23.292;2023-06-24T03:54:48;93755.69;;;22.15;100.00
7586;BME280;12459;42.646;23.292;2023-06-24T04:09:50;93583.25;;;20.79;100.00
7586;BME280;12459;42.646;23.292;2023-06-24T04:24:51;93682.28;;;21.44;100.00
7586;BME280;12459;42.646;23.292;2023-06-24T04:39:53;93842.06;;;23.12;100.00
7586;BME280;12459;42.646;23.292;2023-06-24T04:54:55;93854.66;;;24.11;100.00
7586;BME280;12459;42.646;23.292;2023-06-24T05:09:57;93763.97;;;24.04;100.00
7586;BME280;12459;42.646;23.292;2023-06-24T05:24:59;93815.59;;;24.79;100.00
7586;BME280;12459;42.646;23.292;2023-06-24T05:40:01;93769.44;;;25.09;100.00
7586;BME280;12459;42.646;23.292;2023-06-24T05:55:04;93837.44;;;26.19;100.00
7586;BME280;12459;42.646;23.292;2023-06-24T06:10:06;93818.97;;;26.53;92.33
7586;BME280;12459;42.646;23.292;2023-06-24T06:25:08;93632.63;;;25.73;89.67
7586;BME280;12459;42.646;23.292;2023-06-24T06:40:10;93700.03;;;26.35;86.48
7586;BME280;12459;42.646;23.292;2023-06-24T06:55:12;93728.94;;;26.81;85.77
7586;BME280;12459;42.646;23.292;2023-06-24T07:10:14;93697.50;;;26.54;83.12
7586;BME280;12459;42.646;23.292;2023-06-24T07:25:16;93781.72;;;27.54;81.55
7586;BME280;12459;42.646;23.292;2023-06-24T07:40:18;93770.44;;;27.58;81.73
7586;BME280;12459;42.646;23.292;2023-06-24T07:55:19;93850.66;;;28.42;82.45
7586;BME280;12459;42.646;23.292;2023-06-24T08:10:21;93844.22;;;28.34;82.05
7586;BME280;12459;42.646;23.292;2023-06-24T08:25:23;93731.47;;;27.89;78.88
7586;BME280;12459;42.646;23.292;2023-06-24T08:40:26;93740.66;;;27.97;78.86
7586;BME280;12459;42.646;23.292;2023-06-24T08:55:30;93759.91;;;28.44;81.82
7586;BME280;12459;42.646;23.292;2023-06-24T09:10:36;93815.84;;;29.23;78.14
7586;BME280;12459;42.646;23.292;2023-06-24T09:25:38;93632.78;;;28.18;78.65
7586;BME280;12459;42.646;23.292;2023-06-24T09:40:40;93715.66;;;28.80;73.38
7586;BME280;12459;42.646;23.292;2023-06-24T09:55:42;93725.88;;;29.09;74.04
7586;BME280;12459;42.646;23.292;2023-06-24T10:10:45;93691.22;;;29.33;73.25
7586;BME280;12459;42.646;23.292;2023-06-24T10:25:48;93642.28;;;29.33;68.48
7586;BME280;12459;42.646;23.292;2023-06-24T10:40:49;93528.19;;;29.06;67.34
7586;BME280;12459;42.646;23.292;2023-06-24T10:55:51;93591.78;;;29.83;68.53
7586;BME280;12459;42.646;23.292;2023-06-24T11:10:53;93645.72;;;30.48;64.38
7586;BME280;12459;42.646;23.292;2023-06-24T11:25:55;93474.69;;;29.09;62.24
7586;BME280;12459;42.646;23.292;2023-06-24T11:41:02;93693.72;;;30.38;58.59
7586;BME280;12459;42.646;23.292;2023-06-24T11:56:04;93692.66;;;30.09;65.02
7586;BME280;12459;42.646;23.292;2023-06-24T12:11:06;93595.34;;;29.65;65.52
7586;BME280;12459;42.646;23.292;2023-06-24T12:26:08;93667.97;;;29.79;64.69
7586;BME280;12459;42.646;23.292;2023-06-24T12:41:10;93562.06;;;28.88;72.85
7586;BME280;12459;42.646;23.292;2023-06-24T12:56:12;93702.66;;;28.99;84.88
7586;BME280;12459;42.646;23.292;2023-06-24T13:11:14;93612.13;;;28.30;85.48
7586;BME280;12459;42.646;23.292;2023-06-24T13:26:15;93545.38;;;27.88;89.77
7586;BME280;12459;42.646;23.292;2023-06-24T13:41:17;93765.53;;;27.86;81.50
7586;BME280;12459;42.646;23.292;2023-06-24T13:56:19;93772.41;;;26.88;73.23
7586;BME280;12459;42.646;23.292;2023-06-24T14:11:21;93748.91;;;26.87;74.50
7586;BME280;12459;42.646;23.292;2023-06-24T14:26:23;93540.75;;;25.57;82.19
7586;BME280;12459;42.646;23.292;2023-06-24T14:41:28;93565.19;;;25.94;84.45
7586;BME280;12459;42.646;23.292;2023-06-24T14:56:30;93635.63;;;26.08;88.10
7586;BME280;12459;42.646;23.292;2023-06-24T15:11:31;93658.56;;;25.61;89.26
7586;BME280;12459;42.646;23.292;2023-06-24T15:26:33;93698.56;;;26.01;89.73
7586;BME280;12459;42.646;23.292;2023-06-24T15:41:38;93531.00;;;24.95;96.54
7586;BME280;12459;42.646;23.292;2023-06-24T15:56:40;93632.59;;;25.45;97.04
7586;BME280;12459;42.646;23.292;2023-06-24T16:11:41;93721.16;;;25.45;98.16
7586;BME280;12459;42.646;23.292;2023-06-24T16:26:44;93738.56;;;25.20;92.10
7586;BME280;12459;42.646;23.292;2023-06-24T16:41:53;93715.75;;;24.49;98.43
7586;BME280;12459;42.646;23.292;2023-06-24T16:56:55;93503.97;;;23.46;91.07
7586;BME280;12459;42.646;23.292;2023-06-24T17:11:57;93560.81;;;24.54;86.48
7586;BME280;12459;42.646;23.292;2023-06-24T17:26:58;93627.06;;;24.46;86.19
7586;BME280;12459;42.646;23.292;2023-06-24T17:42:00;93806.03;;;25.55;89.35
7586;BME280;12459;42.646;23.292;2023-06-24T17:57:02;93663.34;;;24.30;100.00
7586;BME280;12459;42.646;23.292;2023-06-24T18:12:04;93747.94;;;24.23;99.80
7586;BME280;12459;42.646;23.292;2023-06-24T18:27:06;93565.41;;;23.14;99.53
7586;BME280;12459;42.646;23.292;2023-06-24T18:42:09;93587.25;;;23.40;100.00
7586;BME280;12459;42.646;23.292;2023-06-24T18:57:10;93553.34;;;23.00;100.00
7586;BME280;12459;42.646;23.292;2023-06-24T19:12:12;93628.81;;;23.18;100.00
7586;BME280;12459;42.646;23.292;2023-06-24T19:27:14;93600.34;;;22.58;100.00
7586;BME280;12459;42.646;23.292;2023-06-24T19:42:16;93623.00;;;22.84;100.00
7586;BME280;12459;42.646;23.292;2023-06-24T19:57:19;93523.72;;;22.47;100.00
7586;BME280;12459;42.646;23.292;2023-06-24T20:12:21;93565.88;;;22.20;100.00
7586;BME280;12459;42.646;23.292;2023-06-24T20:27:23;93644.31;;;22.60;100.00
7586;BME280;12459;42.646;23.292;2023-06-24T20:42:26;93640.84;;;22.59;100.00
7586;BME280;12459;42.646;23.292;2023-06-24T20:57:28;93636.31;;;22.36;100.00
7586;BME280;12459;42.646;23.292;2023-06-24T21:12:30;93633.25;;;22.28;100.00
7586;BME280;12459;42.646;23.292;2023-06-24T21:27:35;93794.66;;;23.41;100.00
7586;BME280;12459;42.646;23.292;2023-06-24T21:42:37;93816.41;;;23.10;100.00
7586;BME280;12459;42.646;23.292;2023-06-24T21:57:38;93826.47;;;22.34;100.00
7586;BME280;12459;42.646;23.292;2023-06-24T22:12:40;93878.16;;;22.08;100.00
7586;BME280;12459;42.646;23.292;2023-06-24T22:27:42;93905.66;;;22.48;100.00
7586;BME280;12459;42.646;23.292;2023-06-24T22:42:44;93911.31;;;22.45;100.00
7586;BME280;12459;42.646;23.292;2023-06-24T22:57:46;93866.69;;;22.18;100.00
7586;BME280;12459;42.646;23.292;2023-06-24T23:12:48;93840.50;;;22.26;100.00
7586;BME280;12459;42.646;23.292;2023-06-24T23:42:53;93823.00;;;22.18;100.00
7586;BME280;12459;42.646;23.292;2023-06-24T23:57:55;93582.16;;;20.85;100.00
